Terminal Aerodrome Forecast
Issued by NWS

Home | Current Version | Previous Version | Graphics & Text | Print | Product List | Glossary On
Versions: 1 2 3 4 5 6 7 8 9 10 11 12 13 14 15 16 17 18 19 20 21 22 23 24 25 26 27 28 29 30 31 32 33
510
FTUS43 KABR 152353 AAA
TAFMBG
TAF AMD
KMBG 152353Z 1600/1624 06005KT 6SM -SHRA VCTS OVC045CB
      TEMPO 1600/1601 VRB15G35KT 1SM TSRA OVC020CB
     FM160300 03004KT 6SM BR VCSH OVC050
     FM160500 VRB03KT P6SM OVC030
     FM160900 34007KT P6SM OVC020
     FM161300 34010KT P6SM BKN008
     FM161700 35013KT P6SM BKN050=

USA.gov is the U.S. government's official web portal to all federal, state and local government web resources and services.